Portada
METAR-TAF:

METAR-TAF

Aeroports :

Reading Regional Airport (Carl A. Spaatz Field)

Reading, Pennsilvània, Estats Units d'Amèrica

latitud: 40-22-24N, longitud: 075-57-34W, altitud: 105 m

METAR: manca

Hora: 04:32 (08:32 UTC)

Pronòstic

L'informe es va fer fa 3 hores i 10 minuts, a les 05:22 UTC
Pronòstic vàlid del 02 a les 06 UTC al 03 a les 06 UTC
Vent 3 kt amb direcció variable
Visibilitat: 10 km
Cel ennuvolat a una alçada de 25000 ft
A partir de les 02 a les 1500 UTC
Vent 5 kt del Oest
Visibilitat: 10 km
Cel ennuvolat a una alçada de 10000 ft
A partir de les 02 a les 1800 UTC
Vent 6 kt del Oest/Sud-Oest
Visibilitat: 10 km
Cel ennuvolat a una alçada de 5000 ft

TAF: KRDG 020522Z 0206/0306 VRB03KT P6SM BKN250 FM021500 27005KT P6SM BKN100 FM021800 25006KT P6SM BKN050

Observacions i pronòstics meteorològics de més de 4000 aeroports (METAR i TAF).

Les estacions disponibles són els punts grocs i vermells al mapa.

Posi el ratolí al punt desitjat per veure el nom de l'estació.

Feu clic per veure les observacions i els pronòstics meteorològics.

Per canviar el mapa: feu clic els botons verds amb una creu de color negre per apropar; al botó verd amb un guió per allunyar la imatge; o en les fletxes verdes per a mapes adjacents.


METAR-TAF: